Time,TemperatureF,DewpointF,PressureIn,WindDirection,WindDirectionDegrees,WindSpeedMPH,WindSpeedGustMPH,Humidity,HourlyPrecipIn,Conditions,Clouds,dailyrainin,SolarRadiationWatts/m^2,SoftwareType,DateUTC
2013-07-29 00:02:00,54.0,50.7,-100.00,West,261,0.0,2.0,89,0.00,,,0.00,0.0,meteohub,2013-07-29 07:02:00,
2013-07-29 00:09:00,54.0,51.1,-100.00,West,261,0.0,2.0,90,0.00,,,0.00,0.0,meteohub,2013-07-29 07:09:00,
2013-07-29 00:15:00,54.1,51.3,-100.00,West,261,0.0,2.0,90,0.00,,,0.00,0.0,meteohub,2013-07-29 07:15:00,
2013-07-29 00:21:00,54.1,50.9,-100.00,SSE,155,0.0,2.0,89,0.00,,,0.00,0.0,meteohub,2013-07-29 07:21:00,
2013-07-29 00:27:00,54.1,50.9,-100.00,SSE,155,0.0,2.0,89,0.00,,,0.00,0.0,meteohub,2013-07-29 07:27:00,
2013-07-29 00:32:00,54.1,50.9,-100.00,SSE,155,0.0,2.0,89,0.00,,,0.00,0.0,meteohub,2013-07-29 07:32:00,
2013-07-29 00:37:00,54.1,50.9,-100.00,SSE,155,0.0,2.0,89,0.00,,,0.00,0.0,meteohub,2013-07-29 07:37:00,
2013-07-29 00:42:00,54.0,50.7,-100.00,SSE,155,0.0,3.0,89,0.00,,,0.00,0.0,meteohub,2013-07-29 07:42:00,
2013-07-29 00:47:00,54.0,51.1,-100.00,SSE,155,0.0,3.0,90,0.00,,,0.00,0.0,meteohub,2013-07-29 07:47:00,
2013-07-29 00:52:00,54.0,51.1,-100.00,SSE,155,0.0,3.0,90,0.00,,,0.00,0.0,meteohub,2013-07-29 07:52:00,
2013-07-29 00:58:00,54.0,51.1,-100.00,SSE,155,2.0,3.0,90,0.00,,,0.00,0.0,meteohub,2013-07-29 07:58:00,
2013-07-29 01:05:00,54.1,51.3,-100.00,SSE,155,0.0,2.0,90,0.00,,,0.00,0.0,meteohub,2013-07-29 08:05:00,
2013-07-29 01:11:00,54.1,51.3,-100.00,SSE,155,0.0,4.0,90,0.00,,,0.00,0.0,meteohub,2013-07-29 08:11:00,
2013-07-29 01:17:00,54.1,51.3,-100.00,SSE,155,0.0,4.0,90,0.00,,,0.00,0.0,meteohub,2013-07-29 08:17:00,
2013-07-29 01:22:00,54.3,51.4,-100.00,SSE,155,0.0,2.0,90,0.00,,,0.00,0.0,meteohub,2013-07-29 08:22:00,
2013-07-29 01:27:00,54.3,51.4,-100.00,SSE,155,0.0,2.0,90,0.00,,,0.00,0.0,meteohub,2013-07-29 08:27:00,
2013-07-29 01:32:00,54.3,51.4,-100.00,SSE,155,0.0,2.0,90,0.00,,,0.00,0.0,meteohub,2013-07-29 08:32:00,
2013-07-29 01:38:00,54.3,51.4,-100.00,SSE,155,0.0,2.0,90,0.00,,,0.00,0.0,meteohub,2013-07-29 08:38:00,
2013-07-29 01:44:00,54.5,51.6,-100.00,SSE,155,0.0,2.0,90,0.00,,,0.00,0.0,meteohub,2013-07-29 08:44:00,
2013-07-29 01:50:00,54.3,51.4,-100.00,SSE,155,1.0,2.0,90,0.00,,,0.00,0.0,meteohub,2013-07-29 08:50:00,
2013-07-29 01:56:00,54.1,51.3,-100.00,SSE,155,0.0,2.0,90,0.00,,,0.00,0.0,meteohub,2013-07-29 08:56:00,
2013-07-29 02:02:00,54.1,51.6,-100.00,SSE,155,0.0,2.0,91,0.00,,,0.00,0.0,meteohub,2013-07-29 09:02:00,
2013-07-29 02:07:00,54.1,51.6,-100.00,SSE,155,0.0,2.0,91,0.00,,,0.00,0.0,meteohub,2013-07-29 09:07:00,
2013-07-29 02:13:00,54.1,51.6,-100.00,SSE,155,0.0,1.0,91,0.00,,,0.00,0.0,meteohub,2013-07-29 09:13:00,
2013-07-29 02:19:00,54.1,51.6,-100.00,SSE,155,0.0,0.0,91,0.00,,,0.00,0.0,meteohub,2013-07-29 09:19:00,
2013-07-29 02:25:00,54.1,51.3,-100.00,SSE,155,0.0,0.0,90,0.00,,,0.00,0.0,meteohub,2013-07-29 09:25:00,
2013-07-29 02:31:00,54.1,51.6,-100.00,SSE,155,0.0,1.0,91,0.00,,,0.00,0.0,meteohub,2013-07-29 09:31:00,
2013-07-29 02:37:00,54.1,51.6,-100.00,SSE,155,0.0,1.0,91,0.00,,,0.00,0.0,meteohub,2013-07-29 09:37:00,
2013-07-29 02:42:00,54.1,51.6,-100.00,SSE,155,0.0,0.0,91,0.00,,,0.00,0.0,meteohub,2013-07-29 09:42:00,
2013-07-29 02:47:00,54.1,51.6,-100.00,SSE,155,0.0,0.0,91,0.00,,,0.00,0.0,meteohub,2013-07-29 09:47:00,
2013-07-29 02:52:00,54.1,51.6,-100.00,SSE,155,0.0,2.0,91,0.00,,,0.00,0.0,meteohub,2013-07-29 09:52:00,
2013-07-29 02:57:00,54.1,51.6,-100.00,SSE,155,0.0,2.0,91,0.00,,,0.00,0.0,meteohub,2013-07-29 09:57:00,
2013-07-29 02:58:00,54.1,51.8,-100.00,SSE,155,0.0,2.0,92,0.00,,,0.00,0.0,meteohub,2013-07-29 09:58:00,
2013-07-29 03:06:00,54.1,51.8,-100.00,SSE,155,0.0,2.0,92,0.00,,,0.00,0.0,meteohub,2013-07-29 10:06:00,
2013-07-29 03:12:00,54.1,51.8,-100.00,SSE,155,0.0,1.0,92,0.00,,,0.00,0.0,meteohub,2013-07-29 10:12:00,
2013-07-29 03:20:00,54.1,51.6,-100.00,SSE,155,0.0,2.0,91,0.00,,,0.00,0.0,meteohub,2013-07-29 10:20:00,
2013-07-29 03:27:00,54.0,51.4,-100.00,SSE,155,0.0,2.0,91,0.00,,,0.00,0.0,meteohub,2013-07-29 10:27:00,
2013-07-29 03:33:00,54.0,51.6,-100.00,SSE,155,0.0,1.0,92,0.00,,,0.00,0.0,meteohub,2013-07-29 10:33:00,
2013-07-29 03:40:00,54.0,51.4,-100.00,SSE,155,0.0,1.0,91,0.00,,,0.00,0.0,meteohub,2013-07-29 10:40:00,
2013-07-29 03:45:00,54.0,51.4,-100.00,SSE,155,0.0,2.0,91,0.00,,,0.00,0.0,meteohub,2013-07-29 10:45:00,
2013-07-29 03:52:00,54.1,51.6,-100.00,SSE,155,0.0,2.0,91,0.00,,,0.00,0.0,meteohub,2013-07-29 10:52:00,
2013-07-29 03:57:00,54.1,51.6,-100.00,SSE,155,0.0,2.0,91,0.00,,,0.00,0.0,meteohub,2013-07-29 10:57:00,
2013-07-29 04:02:00,54.1,51.6,-100.00,SSE,155,0.0,0.0,91,0.00,,,0.00,0.0,meteohub,2013-07-29 11:02:00,
2013-07-29 04:07:00,54.1,51.6,-100.00,SSE,155,0.0,0.0,91,0.00,,,0.00,0.0,meteohub,2013-07-29 11:07:00,
2013-07-29 04:13:00,54.1,51.6,-100.00,SSE,155,0.0,1.0,91,0.00,,,0.00,0.0,meteohub,2013-07-29 11:13:00,
2013-07-29 04:18:00,54.1,51.6,-100.00,SSE,155,2.0,2.0,91,0.00,,,0.00,0.0,meteohub,2013-07-29 11:18:00,
2013-07-29 04:24:00,54.0,51.4,-100.00,SSE,155,0.0,3.0,91,0.00,,,0.00,0.0,meteohub,2013-07-29 11:24:00,
2013-07-29 04:30:00,54.0,51.4,-100.00,SSE,155,0.0,3.0,91,0.00,,,0.00,0.0,meteohub,2013-07-29 11:30:00,
2013-07-29 04:38:00,54.1,51.6,-100.00,SSE,155,0.0,3.0,91,0.00,,,0.00,0.0,meteohub,2013-07-29 11:38:00,
2013-07-29 04:44:00,54.1,51.6,-100.00,SSE,155,0.0,1.0,91,0.00,,,0.00,0.0,meteohub,2013-07-29 11:44:00,
2013-07-29 04:50:00,54.1,51.6,-100.00,SSE,155,0.0,2.0,91,0.00,,,0.00,0.0,meteohub,2013-07-29 11:50:00,
2013-07-29 04:57:00,54.3,51.8,-100.00,SSE,155,0.0,2.0,91,0.00,,,0.00,0.0,meteohub,2013-07-29 11:57:00,
2013-07-29 05:02:00,54.3,51.4,-100.00,SSE,155,0.0,2.0,90,0.00,,,0.00,0.0,meteohub,2013-07-29 12:02:00,
2013-07-29 05:08:00,54.5,51.6,-100.00,SSE,155,0.0,2.0,90,0.00,,,0.00,0.0,meteohub,2013-07-29 12:08:00,
2013-07-29 05:13:00,54.5,51.6,-100.00,SSE,155,0.0,1.0,90,0.00,,,0.00,0.0,meteohub,2013-07-29 12:13:00,
2013-07-29 05:20:00,54.5,51.6,-100.00,SSE,155,0.0,1.0,90,0.00,,,0.00,0.0,meteohub,2013-07-29 12:20:00,
2013-07-29 05:26:00,54.7,51.8,-100.00,SSE,155,0.0,1.0,90,0.00,,,0.00,0.0,meteohub,2013-07-29 12:26:00,
2013-07-29 05:32:00,54.7,51.8,-100.00,SSE,155,0.0,1.0,90,0.00,,,0.00,0.0,meteohub,2013-07-29 12:32:00,
2013-07-29 05:37:00,54.7,51.8,-100.00,SSE,155,0.0,1.0,90,0.00,,,0.00,0.0,meteohub,2013-07-29 12:37:00,
2013-07-29 05:43:00,54.7,51.8,-100.00,SSE,155,0.0,1.0,90,0.00,,,0.00,0.0,meteohub,2013-07-29 12:43:00,
2013-07-29 05:48:00,54.7,51.8,-100.00,SSE,155,0.0,1.0,90,0.00,,,0.00,0.0,meteohub,2013-07-29 12:48:00,
2013-07-29 05:55:00,54.7,51.8,-100.00,WSW,242,0.0,1.0,90,0.00,,,0.00,0.0,meteohub,2013-07-29 12:55:00,
2013-07-29 06:02:00,54.5,51.6,-100.00,WSW,242,0.0,1.0,90,0.00,,,0.00,0.0,meteohub,2013-07-29 13:02:00,
2013-07-29 06:07:00,54.5,51.6,-100.00,WSW,242,0.0,1.0,90,0.00,,,0.00,0.0,meteohub,2013-07-29 13:07:00,
2013-07-29 06:13:00,54.5,51.6,-100.00,WSW,242,0.0,2.0,90,0.00,,,0.00,0.0,meteohub,2013-07-29 13:13:00,
2013-07-29 06:21:00,54.7,51.8,-100.00,WSW,242,0.0,2.0,90,0.00,,,0.00,0.0,meteohub,2013-07-29 13:21:00,
2013-07-29 06:27:00,54.7,51.8,-100.00,WSW,242,0.0,2.0,90,0.00,,,0.00,0.0,meteohub,2013-07-29 13:27:00,
2013-07-29 06:32:00,54.7,51.8,-100.00,WSW,242,0.0,2.0,90,0.00,,,0.00,0.0,meteohub,2013-07-29 13:32:00,
2013-07-29 06:37:00,54.7,51.8,-100.00,WSW,242,0.0,0.0,90,0.00,,,0.00,0.0,meteohub,2013-07-29 13:37:00,
2013-07-29 06:42:00,54.7,52.2,-100.00,WSW,242,0.0,0.0,91,0.00,,,0.00,5.0,meteohub,2013-07-29 13:42:00,
2013-07-29 06:49:00,54.9,52.3,-100.00,WSW,242,2.0,0.0,91,0.00,,,0.00,7.0,meteohub,2013-07-29 13:49:00,
2013-07-29 06:55:00,54.7,52.2,-100.00,WSW,242,0.0,0.0,91,0.00,,,0.00,9.0,meteohub,2013-07-29 13:55:00,
2013-07-29 07:01:00,54.7,52.2,-100.00,WSW,242,0.0,2.0,91,0.00,,,0.00,11.0,meteohub,2013-07-29 14:01:00,
2013-07-29 07:07:00,54.7,52.2,-100.00,WSW,242,0.0,2.0,91,0.00,,,0.00,12.0,meteohub,2013-07-29 14:07:00,
2013-07-29 07:12:00,54.7,52.2,-100.00,WSW,242,0.0,2.0,91,0.00,,,0.00,12.0,meteohub,2013-07-29 14:12:00,
2013-07-29 07:20:00,54.9,52.5,-100.00,WSW,242,0.0,0.0,92,0.00,,,0.00,18.0,meteohub,2013-07-29 14:20:00,
2013-07-29 07:25:00,54.9,52.5,-100.00,WSW,242,0.0,0.0,92,0.00,,,0.00,21.0,meteohub,2013-07-29 14:25:00,
2013-07-29 07:31:00,54.9,52.3,-100.00,WSW,242,0.0,0.0,91,0.00,,,0.00,26.0,meteohub,2013-07-29 14:31:00,
2013-07-29 07:37:00,54.9,52.3,-100.00,WSW,242,0.0,2.0,91,0.00,,,0.00,30.0,meteohub,2013-07-29 14:37:00,
2013-07-29 07:45:00,54.9,52.3,-100.00,WSW,242,0.0,2.0,91,0.00,,,0.00,33.0,meteohub,2013-07-29 14:45:00,
2013-07-29 07:50:00,55.0,52.5,-100.00,WSW,242,0.0,2.0,91,0.00,,,0.00,42.0,meteohub,2013-07-29 14:50:00,
2013-07-29 07:56:00,55.0,52.5,-100.00,WSW,242,0.0,2.0,91,0.00,,,0.00,51.0,meteohub,2013-07-29 14:56:00,
2013-07-29 08:02:00,55.0,52.5,-100.00,WSW,242,0.0,2.0,91,0.00,,,0.00,54.0,meteohub,2013-07-29 15:02:00,
2013-07-29 08:07:00,55.0,52.5,-100.00,WSW,242,0.0,2.0,91,0.00,,,0.00,62.0,meteohub,2013-07-29 15:07:00,
2013-07-29 08:13:00,55.0,52.5,-100.00,WSW,242,0.0,3.0,91,0.00,,,0.00,67.0,meteohub,2013-07-29 15:13:00,
2013-07-29 08:19:00,55.2,52.3,-100.00,WSW,242,1.0,3.0,90,0.00,,,0.00,70.0,meteohub,2013-07-29 15:19:00,
2013-07-29 08:25:00,55.2,52.3,-100.00,WSW,242,0.0,3.0,90,0.00,,,0.00,76.0,meteohub,2013-07-29 15:25:00,
2013-07-29 08:31:00,55.4,52.5,-100.00,WSW,242,0.0,3.0,90,0.00,,,0.00,77.0,meteohub,2013-07-29 15:31:00,
2013-07-29 08:36:00,55.8,52.9,-100.00,WSW,242,1.0,3.0,90,0.00,,,0.00,74.0,meteohub,2013-07-29 15:36:00,
2013-07-29 08:42:00,55.8,52.5,-100.00,WSW,242,0.0,3.0,89,0.00,,,0.00,86.0,meteohub,2013-07-29 15:42:00,
2013-07-29 08:48:00,55.9,52.7,-100.00,WSW,242,0.0,3.0,89,0.00,,,0.00,91.0,meteohub,2013-07-29 15:48:00,
2013-07-29 08:55:00,55.9,52.7,-100.00,WSW,242,0.0,2.0,89,0.00,,,0.00,84.0,meteohub,2013-07-29 15:55:00,
2013-07-29 09:01:00,55.9,52.7,-100.00,WSW,242,0.0,2.0,89,0.00,,,0.00,83.0,meteohub,2013-07-29 16:01:00,
2013-07-29 09:08:00,56.1,52.9,-100.00,WSW,242,1.0,2.0,89,0.00,,,0.00,86.0,meteohub,2013-07-29 16:08:00,
2013-07-29 09:14:00,56.3,53.1,-100.00,WSW,242,0.0,2.0,89,0.00,,,0.00,100.0,meteohub,2013-07-29 16:14:00,
2013-07-29 09:20:00,56.3,53.1,-100.00,WSW,242,0.0,2.0,89,0.00,,,0.00,97.0,meteohub,2013-07-29 16:20:00,
2013-07-29 09:27:00,56.3,52.9,-100.00,WSW,242,0.0,2.0,88,0.00,,,0.00,97.0,meteohub,2013-07-29 16:27:00,
2013-07-29 09:32:00,56.5,52.9,-100.00,WSW,242,0.0,2.0,88,0.00,,,0.00,100.0,meteohub,2013-07-29 16:32:00,
2013-07-29 09:37:00,56.7,53.1,-100.00,WSW,242,0.0,2.0,88,0.00,,,0.00,97.0,meteohub,2013-07-29 16:37:00,
2013-07-29 09:42:00,56.7,53.1,-100.00,WSW,242,0.0,2.0,88,0.00,,,0.00,109.0,meteohub,2013-07-29 16:42:00,
2013-07-29 09:47:00,56.8,53.2,-100.00,WSW,242,0.0,2.0,88,0.00,,,0.00,100.0,meteohub,2013-07-29 16:47:00,
2013-07-29 09:53:00,56.8,53.1,-100.00,WSW,242,1.0,2.0,87,0.00,,,0.00,93.0,meteohub,2013-07-29 16:53:00,
2013-07-29 09:59:00,57.0,53.4,-100.00,WSW,242,0.0,2.0,88,0.00,,,0.00,93.0,meteohub,2013-07-29 16:59:00,
2013-07-29 10:08:00,57.7,54.0,-100.00,WSW,242,0.0,2.0,87,0.00,,,0.00,104.0,meteohub,2013-07-29 17:08:00,
2013-07-29 10:14:00,57.6,53.4,-100.00,WSW,242,0.0,1.0,86,0.00,,,0.00,105.0,meteohub,2013-07-29 17:14:00,
2013-07-29 10:21:00,57.6,53.4,-100.00,WSW,242,0.0,1.0,86,0.00,,,0.00,105.0,meteohub,2013-07-29 17:21:00,
2013-07-29 10:27:00,57.6,53.8,-100.00,WSW,242,0.0,1.0,87,0.00,,,0.00,104.0,meteohub,2013-07-29 17:27:00,
2013-07-29 10:33:00,57.6,53.8,-100.00,WSW,237,0.0,2.0,87,0.00,,,0.00,111.0,meteohub,2013-07-29 17:33:00,
2013-07-29 10:40:00,57.9,53.8,-100.00,SW,236,0.0,2.0,86,0.00,,,0.00,109.0,meteohub,2013-07-29 17:40:00,
2013-07-29 10:46:00,58.1,54.0,-100.00,WNW,283,0.0,2.0,86,0.00,,,0.00,104.0,meteohub,2013-07-29 17:46:00,
2013-07-29 10:52:00,57.9,53.8,-100.00,SW,220,0.0,5.0,86,0.00,,,0.00,116.0,meteohub,2013-07-29 17:52:00,
2013-07-29 10:57:00,58.1,54.0,-100.00,SW,219,0.0,5.0,86,0.00,,,0.00,134.0,meteohub,2013-07-29 17:57:00,
2013-07-29 11:03:00,58.3,53.8,-100.00,WSW,254,2.0,5.0,85,0.00,,,0.00,149.0,meteohub,2013-07-29 18:03:00,
2013-07-29 11:08:00,58.5,54.0,-100.00,SW,234,1.0,5.0,85,0.00,,,0.00,179.0,meteohub,2013-07-29 18:08:00,
2013-07-29 11:14:00,58.6,53.8,-100.00,SSW,212,6.0,6.0,84,0.00,,,0.00,165.0,meteohub,2013-07-29 18:14:00,
2013-07-29 11:19:00,58.6,53.4,-100.00,SW,218,4.0,8.0,83,0.00,,,0.00,158.0,meteohub,2013-07-29 18:19:00,
2013-07-29 11:25:00,58.6,53.4,-100.00,SW,218,5.0,8.0,83,0.00,,,0.00,163.0,meteohub,2013-07-29 18:25:00,
2013-07-29 11:32:00,59.2,54.3,-100.00,SW,218,0.0,8.0,84,0.00,,,0.00,165.0,meteohub,2013-07-29 18:32:00,
2013-07-29 11:38:00,59.2,53.6,-100.00,WNW,282,0.0,8.0,82,0.00,,,0.00,165.0,meteohub,2013-07-29 18:38:00,
2013-07-29 11:44:00,59.2,53.6,-100.00,WNW,285,1.0,7.0,82,0.00,,,0.00,162.0,meteohub,2013-07-29 18:44:00,
2013-07-29 11:50:00,59.4,53.8,-100.00,WSW,244,0.0,7.0,82,0.00,,,0.00,169.0,meteohub,2013-07-29 18:50:00,
2013-07-29 11:56:00,59.4,54.1,-100.00,WSW,247,2.0,7.0,83,0.00,,,0.00,172.0,meteohub,2013-07-29 18:56:00,
2013-07-29 12:02:00,59.4,53.8,-100.00,SW,227,1.0,5.0,82,0.00,,,0.00,176.0,meteohub,2013-07-29 19:02:00,
2013-07-29 12:07:00,59.5,54.0,-100.00,SW,228,0.0,5.0,82,0.00,,,0.00,192.0,meteohub,2013-07-29 19:07:00,
2013-07-29 12:13:00,59.7,54.1,-100.00,SW,218,1.0,6.0,82,0.00,,,0.00,202.0,meteohub,2013-07-29 19:13:00,
2013-07-29 12:21:00,59.7,54.1,-100.00,SW,227,0.0,6.0,82,0.00,,,0.00,227.0,meteohub,2013-07-29 19:21:00,
2013-07-29 12:27:00,59.7,54.0,-100.00,WSW,238,1.0,6.0,81,0.00,,,0.00,237.0,meteohub,2013-07-29 19:27:00,
2013-07-29 12:32:00,59.7,54.0,-100.00,WSW,240,2.0,6.0,81,0.00,,,0.00,246.0,meteohub,2013-07-29 19:32:00,
2013-07-29 12:37:00,60.1,54.3,-100.00,WSW,244,0.0,6.0,81,0.00,,,0.00,255.0,meteohub,2013-07-29 19:37:00,
2013-07-29 12:42:00,60.3,54.1,-100.00,West,272,0.0,5.0,80,0.00,,,0.00,209.0,meteohub,2013-07-29 19:42:00,
2013-07-29 12:50:00,60.4,54.3,-100.00,SW,217,2.0,5.0,80,0.00,,,0.00,258.0,meteohub,2013-07-29 19:50:00,
2013-07-29 12:55:00,60.6,54.7,-100.00,SW,221,2.0,5.0,81,0.00,,,0.00,276.0,meteohub,2013-07-29 19:55:00,
2013-07-29 13:01:00,61.0,54.7,-100.00,SSW,199,0.0,6.0,80,0.00,,,0.00,279.0,meteohub,2013-07-29 20:01:00,
2013-07-29 13:07:00,60.6,54.1,-100.00,SW,226,2.0,6.0,79,0.00,,,0.00,311.0,meteohub,2013-07-29 20:07:00,
2013-07-29 13:12:00,60.6,54.1,-100.00,SW,223,2.0,7.0,79,0.00,,,0.00,350.0,meteohub,2013-07-29 20:12:00,
2013-07-29 13:18:00,60.6,54.1,-100.00,WNW,290,3.0,7.0,79,0.00,,,0.00,367.0,meteohub,2013-07-29 20:18:00,
2013-07-29 13:24:00,61.2,54.7,-100.00,SW,225,0.0,6.0,79,0.00,,,0.00,394.0,meteohub,2013-07-29 20:24:00,
2013-07-29 13:30:00,61.3,54.5,-100.00,WNW,290,3.0,6.0,78,0.00,,,0.00,446.0,meteohub,2013-07-29 20:30:00,
2013-07-29 13:36:00,61.3,54.5,-100.00,WSW,248,4.0,6.0,78,0.00,,,0.00,443.0,meteohub,2013-07-29 20:36:00,
2013-07-29 13:42:00,61.9,54.9,-100.00,SW,234,0.0,6.0,78,0.00,,,0.00,457.0,meteohub,2013-07-29 20:42:00,
2013-07-29 13:49:00,62.4,55.0,-100.00,SW,233,0.0,5.0,77,0.00,,,0.00,490.0,meteohub,2013-07-29 20:49:00,
2013-07-29 13:55:00,63.3,55.9,-100.00,East,101,3.0,5.0,77,0.00,,,0.00,529.0,meteohub,2013-07-29 20:55:00,
2013-07-29 14:02:00,63.9,56.1,-100.00,ENE,76,1.0,4.0,76,0.00,,,0.00,526.0,meteohub,2013-07-29 21:02:00,
2013-07-29 14:07:00,64.2,56.1,-100.00,ENE,66,2.0,4.0,75,0.00,,,0.00,608.0,meteohub,2013-07-29 21:07:00,
2013-07-29 14:12:00,64.6,55.8,-100.00,ENE,63,0.0,5.0,73,0.00,,,0.00,594.0,meteohub,2013-07-29 21:12:00,
2013-07-29 14:17:00,65.1,56.3,-100.00,ENE,63,2.0,5.0,73,0.00,,,0.00,499.0,meteohub,2013-07-29 21:17:00,
2013-07-29 14:22:00,65.8,56.1,-100.00,NW,304,5.0,5.0,71,0.00,,,0.00,701.0,meteohub,2013-07-29 21:22:00,
2013-07-29 14:28:00,65.5,56.7,-100.00,NNW,333,1.0,5.0,73,0.00,,,0.00,503.0,meteohub,2013-07-29 21:28:00,
2013-07-29 14:36:00,66.7,57.0,-100.00,WSW,256,6.0,7.0,71,0.00,,,0.00,626.0,meteohub,2013-07-29 21:36:00,
2013-07-29 14:42:00,66.6,56.5,-100.00,South,182,7.0,9.0,70,0.00,,,0.00,900.0,meteohub,2013-07-29 21:42:00,
2013-07-29 14:47:00,66.2,56.5,-100.00,WSW,242,6.0,9.0,71,0.00,,,0.00,508.0,meteohub,2013-07-29 21:47:00,
2013-07-29 14:53:00,66.7,57.7,-100.00,SW,215,6.0,9.0,73,0.00,,,0.00,826.0,meteohub,2013-07-29 21:53:00,
2013-07-29 14:59:00,66.9,57.2,-100.00,West,279,5.0,10.0,71,0.00,,,0.00,824.0,meteohub,2013-07-29 21:59:00,
2013-07-29 15:05:00,67.1,57.4,-100.00,SSW,206,6.0,10.0,71,0.00,,,0.00,817.0,meteohub,2013-07-29 22:05:00,
2013-07-29 15:11:00,67.5,57.4,-100.00,South,183,5.0,11.0,70,0.00,,,0.00,800.0,meteohub,2013-07-29 22:11:00,
2013-07-29 15:17:00,66.9,56.8,-100.00,South,169,2.0,11.0,70,0.00,,,0.00,805.0,meteohub,2013-07-29 22:17:00,
2013-07-29 15:22:00,66.4,56.3,-100.00,WSW,240,9.0,13.0,70,0.00,,,0.00,814.0,meteohub,2013-07-29 22:22:00,
2013-07-29 15:28:00,66.0,56.3,-100.00,SSE,156,6.0,13.0,71,0.00,,,0.00,795.0,meteohub,2013-07-29 22:28:00,
2013-07-29 15:34:00,65.8,56.5,-100.00,South,170,3.0,13.0,72,0.00,,,0.00,744.0,meteohub,2013-07-29 22:34:00,
2013-07-29 15:40:00,65.7,56.3,-100.00,WSW,242,1.0,13.0,72,0.00,,,0.00,728.0,meteohub,2013-07-29 22:40:00,
2013-07-29 15:46:00,65.7,55.9,-100.00,South,173,1.0,13.0,71,0.00,,,0.00,724.0,meteohub,2013-07-29 22:46:00,
2013-07-29 15:52:00,64.9,55.8,-100.00,SSW,192,6.0,14.0,72,0.00,,,0.00,696.0,meteohub,2013-07-29 22:52:00,
2013-07-29 15:57:00,64.8,55.6,-100.00,West,260,10.0,14.0,72,0.00,,,0.00,671.0,meteohub,2013-07-29 22:57:00,
2013-07-29 16:03:00,64.8,55.9,-100.00,SW,236,4.0,14.0,73,0.00,,,0.00,661.0,meteohub,2013-07-29 23:03:00,
2013-07-29 16:10:00,64.8,55.9,-100.00,WSW,248,2.0,14.0,73,0.00,,,0.00,635.0,meteohub,2013-07-29 23:10:00,
2013-07-29 16:16:00,64.2,55.4,-100.00,SW,226,2.0,12.0,73,0.00,,,0.00,624.0,meteohub,2013-07-29 23:16:00,
2013-07-29 16:22:00,64.6,55.4,-100.00,WSW,238,10.0,12.0,72,0.00,,,0.00,599.0,meteohub,2013-07-29 23:22:00,
2013-07-29 16:28:00,63.5,55.0,-100.00,South,189,4.0,12.0,74,0.00,,,0.00,575.0,meteohub,2013-07-29 23:28:00,
2013-07-29 16:34:00,63.1,54.7,-100.00,SW,221,8.0,13.0,74,0.00,,,0.00,557.0,meteohub,2013-07-29 23:34:00,
2013-07-29 16:40:00,63.1,55.0,-100.00,SSW,209,1.0,14.0,75,0.00,,,0.00,538.0,meteohub,2013-07-29 23:40:00,
2013-07-29 16:47:00,63.0,54.9,-100.00,WSW,246,6.0,14.0,75,0.00,,,0.00,510.0,meteohub,2013-07-29 23:47:00,
2013-07-29 16:53:00,62.8,54.7,-100.00,SW,219,10.0,13.0,75,0.00,,,0.00,503.0,meteohub,2013-07-29 23:53:00,
2013-07-29 16:59:00,62.1,54.7,-100.00,SW,221,9.0,14.0,77,0.00,,,0.00,471.0,meteohub,2013-07-29 23:59:00,
2013-07-29 17:06:00,61.5,54.7,-100.00,SW,232,10.0,14.0,78,0.00,,,0.00,464.0,meteohub,2013-07-30 00:06:00,
2013-07-29 17:12:00,61.3,54.5,-100.00,SW,229,9.0,15.0,78,0.00,,,0.00,461.0,meteohub,2013-07-30 00:12:00,
2013-07-29 17:17:00,61.3,54.5,-100.00,West,259,4.0,15.0,78,0.00,,,0.00,459.0,meteohub,2013-07-30 00:17:00,
2013-07-29 17:23:00,60.6,54.1,-100.00,SW,227,7.0,15.0,79,0.00,,,0.00,410.0,meteohub,2013-07-30 00:23:00,
2013-07-29 17:29:00,60.6,54.1,-100.00,SW,230,10.0,15.0,79,0.00,,,0.00,420.0,meteohub,2013-07-30 00:29:00,
2013-07-29 17:36:00,60.4,54.3,-100.00,SW,225,10.0,15.0,80,0.00,,,0.00,399.0,meteohub,2013-07-30 00:36:00,
2013-07-29 17:42:00,60.4,54.3,-100.00,WNW,290,6.0,14.0,80,0.00,,,0.00,373.0,meteohub,2013-07-30 00:42:00,
2013-07-29 17:48:00,60.6,54.1,-100.00,SW,234,2.0,14.0,79,0.00,,,0.00,345.0,meteohub,2013-07-30 00:48:00,
2013-07-29 17:54:00,61.3,55.0,-100.00,WSW,254,0.0,14.0,80,0.00,,,0.00,348.0,meteohub,2013-07-30 00:54:00,
2013-07-29 18:00:00,62.2,54.9,-100.00,SSW,202,1.0,7.0,77,0.00,,,0.00,330.0,meteohub,2013-07-30 01:00:00,
2013-07-29 18:08:00,62.4,54.7,-100.00,SW,227,6.0,7.0,76,0.00,,,0.00,315.0,meteohub,2013-07-30 01:08:00,
2013-07-29 18:14:00,61.9,54.3,-100.00,WSW,250,1.0,8.0,76,0.00,,,0.00,292.0,meteohub,2013-07-30 01:14:00,
2013-07-29 18:21:00,61.3,54.1,-100.00,WSW,246,3.0,8.0,77,0.00,,,0.00,88.0,meteohub,2013-07-30 01:21:00,
2013-07-29 18:27:00,61.2,54.3,-100.00,WSW,245,0.0,8.0,78,0.00,,,0.00,86.0,meteohub,2013-07-30 01:27:00,
2013-07-29 18:32:00,61.2,54.3,-100.00,WSW,245,2.0,8.0,78,0.00,,,0.00,83.0,meteohub,2013-07-30 01:32:00,
2013-07-29 18:37:00,61.0,54.5,-100.00,WSW,245,0.0,8.0,79,0.00,,,0.00,81.0,meteohub,2013-07-30 01:37:00,
2013-07-29 18:44:00,61.0,54.5,-100.00,WSW,241,1.0,4.0,79,0.00,,,0.00,77.0,meteohub,2013-07-30 01:44:00,
2013-07-29 18:50:00,60.8,54.3,-100.00,WSW,240,0.0,5.0,79,0.00,,,0.00,77.0,meteohub,2013-07-30 01:50:00,
2013-07-29 18:56:00,60.6,54.5,-100.00,WSW,240,0.0,5.0,80,0.00,,,0.00,76.0,meteohub,2013-07-30 01:56:00,
2013-07-29 19:02:00,60.6,54.5,-100.00,WSW,240,0.0,3.0,80,0.00,,,0.00,63.0,meteohub,2013-07-30 02:02:00,
2013-07-29 19:08:00,60.6,54.5,-100.00,WSW,244,0.0,3.0,80,0.00,,,0.00,62.0,meteohub,2013-07-30 02:08:00,
2013-07-29 19:13:00,60.3,54.3,-100.00,WSW,248,1.0,1.0,81,0.00,,,0.00,58.0,meteohub,2013-07-30 02:13:00,
2013-07-29 19:18:00,60.1,54.5,-100.00,WSW,250,2.0,2.0,82,0.00,,,0.00,56.0,meteohub,2013-07-30 02:18:00,
2013-07-29 19:23:00,59.7,54.1,-100.00,WSW,251,0.0,2.0,82,0.00,,,0.00,51.0,meteohub,2013-07-30 02:23:00,
2013-07-29 19:29:00,59.4,54.1,-100.00,WSW,250,0.0,2.0,83,0.00,,,0.00,47.0,meteohub,2013-07-30 02:29:00,
2013-07-29 19:36:00,59.4,54.5,-100.00,WSW,251,0.0,2.0,84,0.00,,,0.00,44.0,meteohub,2013-07-30 02:36:00,
2013-07-29 19:42:00,59.2,54.3,-100.00,WSW,251,0.0,1.0,84,0.00,,,0.00,39.0,meteohub,2013-07-30 02:42:00,
2013-07-29 19:47:00,59.2,54.3,-100.00,WSW,251,0.0,1.0,84,0.00,,,0.00,35.0,meteohub,2013-07-30 02:47:00,
2013-07-29 19:54:00,59.0,54.1,-100.00,WSW,251,0.0,1.0,84,0.00,,,0.00,30.0,meteohub,2013-07-30 02:54:00,
2013-07-29 20:01:00,58.8,54.0,-100.00,WSW,251,0.0,1.0,84,0.00,,,0.00,18.0,meteohub,2013-07-30 03:01:00,
2013-07-29 20:07:00,58.6,54.1,-100.00,WSW,251,0.0,1.0,85,0.00,,,0.00,12.0,meteohub,2013-07-30 03:07:00,
2013-07-29 20:12:00,58.5,54.0,-100.00,WSW,252,0.0,2.0,85,0.00,,,0.00,5.0,meteohub,2013-07-30 03:12:00,
2013-07-29 20:17:00,58.5,54.0,-100.00,WSW,251,0.0,2.0,85,0.00,,,0.00,0.0,meteohub,2013-07-30 03:17:00,
2013-07-29 20:23:00,58.3,53.8,-100.00,WSW,251,0.0,2.0,85,0.00,,,0.00,0.0,meteohub,2013-07-30 03:23:00,
2013-07-29 20:28:00,58.1,53.6,-100.00,WSW,252,0.0,2.0,85,0.00,,,0.00,0.0,meteohub,2013-07-30 03:28:00,
2013-07-29 20:34:00,57.7,53.2,-100.00,WSW,252,0.0,2.0,85,0.00,,,0.00,0.0,meteohub,2013-07-30 03:34:00,
2013-07-29 20:40:00,57.6,53.4,-100.00,WSW,252,0.0,1.0,86,0.00,,,0.00,0.0,meteohub,2013-07-30 03:40:00,
2013-07-29 20:46:00,57.4,53.2,-100.00,WSW,252,0.0,1.0,86,0.00,,,0.00,0.0,meteohub,2013-07-30 03:46:00,
2013-07-29 20:52:00,57.0,52.9,-100.00,WSW,252,0.0,1.0,86,0.00,,,0.00,0.0,meteohub,2013-07-30 03:52:00,
2013-07-29 20:57:00,56.8,53.1,-100.00,WSW,252,0.0,1.0,87,0.00,,,0.00,0.0,meteohub,2013-07-30 03:57:00,
2013-07-29 21:01:00,56.7,52.9,-100.00,WSW,252,0.0,1.0,87,0.00,,,0.00,0.0,meteohub,2013-07-30 04:01:00,
2013-07-29 21:03:00,56.7,52.9,-100.00,WSW,250,0.0,1.0,87,0.00,,,0.00,0.0,meteohub,2013-07-30 04:03:00,
2013-07-29 21:07:00,56.5,52.7,-100.00,WSW,250,0.0,1.0,87,0.00,,,0.00,0.0,meteohub,2013-07-30 04:07:00,
2013-07-29 21:13:00,56.1,52.3,-100.00,WSW,250,0.0,2.0,87,0.00,,,0.00,0.0,meteohub,2013-07-30 04:13:00,
2013-07-29 21:19:00,55.9,52.5,-100.00,WSW,250,0.0,1.0,88,0.00,,,0.00,0.0,meteohub,2013-07-30 04:19:00,
2013-07-29 21:25:00,55.9,52.5,-100.00,WSW,250,0.0,1.0,88,0.00,,,0.00,0.0,meteohub,2013-07-30 04:25:00,
2013-07-29 21:27:00,55.9,52.5,-100.00,WSW,250,0.0,1.0,88,0.00,,,0.00,0.0,meteohub,2013-07-30 04:27:00,
2013-07-29 21:32:00,55.8,52.3,-100.00,WSW,250,0.0,0.0,88,0.00,,,0.00,0.0,meteohub,2013-07-30 04:32:00,
2013-07-29 21:37:00,55.6,52.2,-100.00,WSW,250,0.0,0.0,88,0.00,,,0.00,0.0,meteohub,2013-07-30 04:37:00,
2013-07-29 21:42:00,55.6,52.2,-100.00,WSW,250,0.0,0.0,88,0.00,,,0.00,0.0,meteohub,2013-07-30 04:42:00,
2013-07-29 21:47:00,55.4,52.2,-100.00,WSW,250,0.0,0.0,89,0.00,,,0.00,0.0,meteohub,2013-07-30 04:47:00,
2013-07-29 21:52:00,55.2,52.0,-100.00,WSW,250,0.0,1.0,89,0.00,,,0.00,0.0,meteohub,2013-07-30 04:52:00,
2013-07-29 21:58:00,55.2,52.0,-100.00,WSW,250,0.0,1.0,89,0.00,,,0.00,0.0,meteohub,2013-07-30 04:58:00,
2013-07-29 22:05:00,55.2,52.0,-100.00,WSW,250,0.0,1.0,89,0.00,,,0.00,0.0,meteohub,2013-07-30 05:05:00,
2013-07-29 22:11:00,55.2,52.0,-100.00,WSW,250,0.0,3.0,89,0.00,,,0.00,0.0,meteohub,2013-07-30 05:11:00,
2013-07-29 22:17:00,55.2,52.0,-100.00,WSW,250,0.0,3.0,89,0.00,,,0.00,0.0,meteohub,2013-07-30 05:17:00,
2013-07-29 22:22:00,55.2,52.0,-100.00,WSW,250,0.0,1.0,89,0.00,,,0.00,0.0,meteohub,2013-07-30 05:22:00,
2013-07-29 22:27:00,55.4,52.2,-100.00,WSW,250,0.0,1.0,89,0.00,,,0.00,0.0,meteohub,2013-07-30 05:27:00,
2013-07-29 22:34:00,55.4,52.2,-100.00,WSW,250,0.0,3.0,89,0.00,,,0.00,0.0,meteohub,2013-07-30 05:34:00,
2013-07-29 22:40:00,55.4,52.2,-100.00,WSW,250,0.0,3.0,89,0.00,,,0.00,0.0,meteohub,2013-07-30 05:40:00,
2013-07-29 22:46:00,55.6,52.3,-100.00,SSW,209,0.0,3.0,89,0.00,,,0.00,0.0,meteohub,2013-07-30 05:46:00,
2013-07-29 22:52:00,55.4,52.2,-100.00,SSW,209,0.0,2.0,89,0.00,,,0.00,0.0,meteohub,2013-07-30 05:52:00,
2013-07-29 22:58:00,55.4,52.2,-100.00,SSW,213,1.0,2.0,89,0.00,,,0.00,0.0,meteohub,2013-07-30 05:58:00,
2013-07-29 23:05:00,55.4,52.2,-100.00,SW,219,0.0,4.0,89,0.00,,,0.00,0.0,meteohub,2013-07-30 06:05:00,
2013-07-29 23:11:00,55.2,52.0,-100.00,SW,222,1.0,6.0,89,0.00,,,0.00,0.0,meteohub,2013-07-30 06:11:00,
2013-07-29 23:17:00,55.2,52.0,-100.00,South,191,0.0,6.0,89,0.00,,,0.00,0.0,meteohub,2013-07-30 06:17:00,
2013-07-29 23:22:00,55.4,52.2,-100.00,SW,235,0.0,5.0,89,0.00,,,0.00,0.0,meteohub,2013-07-30 06:22:00,
2013-07-29 23:27:00,55.2,52.0,-100.00,SSW,196,0.0,5.0,89,0.00,,,0.00,0.0,meteohub,2013-07-30 06:27:00,
2013-07-29 23:34:00,55.2,52.0,-100.00,SSW,194,1.0,5.0,89,0.00,,,0.00,0.0,meteohub,2013-07-30 06:34:00,
2013-07-29 23:40:00,55.0,52.2,-100.00,SSW,207,0.0,5.0,90,0.00,,,0.00,0.0,meteohub,2013-07-30 06:40:00,
2013-07-29 23:46:00,55.0,52.2,-100.00,SW,228,3.0,5.0,90,0.00,,,0.00,0.0,meteohub,2013-07-30 06:46:00,
2013-07-29 23:52:00,55.0,52.2,-100.00,SSW,212,3.0,5.0,90,0.00,,,0.00,0.0,meteohub,2013-07-30 06:52:00,
2013-07-29 23:57:00,55.0,52.2,-100.00,SSW,194,0.0,5.0,90,0.00,,,0.00,0.0,meteohub,2013-07-30 06:57:00,